createdAt,value
2022-11-21T00:01:01.055Z,2.93
2022-11-21T00:03:28.794Z,2.95
2022-11-21T00:05:56.270Z,2.80
2022-11-21T00:08:24.876Z,2.72
2022-11-21T00:10:52.310Z,2.87
2022-11-21T00:13:21.819Z,2.72
2022-11-21T00:15:49.290Z,2.80
2022-11-21T00:18:17.070Z,2.82
2022-11-21T00:20:45.143Z,2.65
2022-11-21T00:23:12.620Z,2.73
2022-11-21T00:25:40.335Z,2.80
2022-11-21T00:28:07.787Z,2.80
2022-11-21T00:30:36.759Z,2.90
2022-11-21T00:33:04.404Z,2.87
2022-11-21T00:35:33.650Z,2.89
2022-11-21T00:38:01.095Z,2.92
2022-11-21T00:40:28.548Z,2.99
2022-11-21T00:42:56.015Z,2.99
2022-11-21T00:45:24.592Z,3.01
2022-11-21T00:47:53.588Z,2.96
2022-11-21T00:50:21.106Z,2.96
2022-11-21T00:52:48.647Z,2.95
2022-11-21T00:55:16.224Z,2.95
2022-11-21T00:57:43.658Z,3.02
2022-11-21T01:00:12.177Z,2.93
2022-11-21T01:02:39.618Z,3.03
2022-11-21T01:05:09.393Z,2.99
2022-11-21T01:07:37.598Z,3.00
2022-11-21T01:10:06.200Z,2.99
2022-11-21T01:12:33.708Z,3.04
2022-11-21T01:15:01.150Z,2.93
2022-11-21T01:17:28.597Z,2.94
2022-11-21T01:19:56.215Z,3.05
2022-11-21T01:22:25.002Z,2.97
2022-11-21T01:24:52.582Z,3.01
2022-11-21T01:27:20.034Z,3.01
2022-11-21T01:29:47.458Z,3.12
2022-11-21T01:32:15.019Z,2.99
2022-11-21T01:34:42.471Z,3.09
2022-11-21T01:37:09.927Z,3.05
2022-11-21T01:39:38.726Z,3.06
2022-11-21T01:42:06.272Z,3.06
2022-11-21T01:44:50.946Z,3.08
2022-11-21T01:47:18.635Z,3.03
2022-11-21T01:49:47.175Z,3.11
2022-11-21T01:52:18.314Z,3.07
2022-11-21T01:54:50.138Z,3.06
2022-11-21T01:57:20.452Z,3.04
2022-11-21T01:59:50.705Z,3.06
2022-11-21T02:02:19.420Z,3.09
2022-11-21T02:04:46.923Z,3.03
2022-11-21T02:07:15.978Z,3.04
2022-11-21T02:09:45.762Z,2.89
2022-11-21T02:12:17.570Z,3.01
2022-11-21T02:14:45.249Z,2.99
2022-11-21T02:17:12.711Z,3.03
2022-11-21T02:19:45.057Z,3.00
2022-11-21T02:22:16.647Z,3.05
2022-11-21T02:24:46.794Z,3.02
2022-11-21T02:27:15.762Z,2.99
2022-11-21T02:29:44.273Z,2.97
2022-11-21T02:32:22.022Z,2.98
2022-11-21T02:34:49.449Z,3.01
2022-11-21T02:37:17.865Z,2.94
2022-11-21T02:39:46.506Z,2.99
2022-11-21T02:42:18.340Z,3.10
2022-11-21T02:44:50.779Z,3.05
2022-11-21T02:47:18.232Z,3.01
2022-11-21T02:49:49.346Z,2.99
2022-11-21T02:52:16.982Z,3.03
2022-11-21T02:54:44.631Z,2.97
2022-11-21T02:57:12.079Z,2.99
2022-11-21T02:59:40.890Z,2.93
2022-11-21T03:02:08.322Z,2.96
2022-11-21T03:04:35.782Z,2.96
2022-11-21T03:07:03.358Z,2.85
2022-11-21T03:09:30.850Z,3.01
2022-11-21T03:11:58.290Z,2.93
2022-11-21T03:14:26.201Z,2.96
2022-11-21T03:16:55.184Z,2.99
2022-11-21T03:19:22.625Z,3.01
2022-11-21T03:21:50.039Z,2.90
2022-11-21T03:24:17.491Z,2.97
2022-11-21T03:26:44.902Z,3.01
2022-11-21T03:29:12.415Z,2.97
2022-11-21T03:31:39.873Z,3.00
2022-11-21T03:34:08.831Z,2.93
2022-11-21T03:36:36.279Z,2.99
2022-11-21T03:39:03.986Z,2.99
2022-11-21T03:41:31.461Z,2.96
2022-11-21T03:43:59.704Z,3.02
2022-11-21T03:46:27.662Z,2.99
2022-11-21T03:48:55.098Z,3.02
2022-11-21T03:51:24.038Z,2.96
2022-11-21T03:53:51.907Z,2.97
2022-11-21T03:56:19.392Z,3.00
2022-11-21T03:58:47.411Z,2.93
2022-11-21T04:01:15.044Z,3.00
2022-11-21T04:03:42.733Z,2.86
2022-11-21T04:06:10.935Z,2.95
2022-11-21T04:08:39.757Z,2.73
2022-11-21T04:11:07.306Z,2.87
2022-11-21T04:13:34.994Z,2.85
2022-11-21T04:16:02.986Z,2.96
2022-11-21T04:18:30.626Z,2.91
2022-11-21T04:20:58.815Z,2.98
2022-11-21T04:23:26.678Z,2.91
2022-11-21T04:25:55.594Z,2.90
2022-11-21T04:28:23.342Z,2.93
2022-11-21T04:30:54.474Z,2.83
2022-11-21T04:33:22.388Z,2.82
2022-11-21T04:35:49.867Z,2.78
2022-11-21T04:38:17.331Z,2.80
2022-11-21T04:40:45.343Z,2.80
2022-11-21T04:43:14.104Z,2.85
2022-11-21T04:45:41.607Z,2.81
2022-11-21T04:48:09.054Z,2.84
2022-11-21T04:50:36.742Z,2.75
2022-11-21T04:53:04.469Z,2.59
2022-11-21T04:55:33.200Z,2.58
2022-11-21T04:58:01.130Z,2.78
2022-11-21T05:00:30.075Z,2.55
2022-11-21T05:03:03.068Z,2.69
2022-11-21T05:05:30.650Z,2.68
2022-11-21T05:07:58.311Z,2.69
2022-11-21T05:10:26.025Z,2.38
2022-11-21T05:13:17.597Z,2.54
2022-11-21T05:15:47.483Z,2.63
2022-11-21T05:18:14.931Z,2.54
2022-11-21T05:20:42.378Z,2.57
2022-11-21T05:23:09.875Z,2.52
2022-11-21T05:25:37.319Z,2.49
2022-11-21T05:28:04.895Z,2.36
2022-11-21T05:30:32.331Z,2.50
2022-11-21T05:33:01.132Z,2.28
2022-11-21T05:35:28.580Z,2.61
2022-11-21T05:37:59.374Z,2.61
2022-11-21T05:40:27.147Z,2.58
2022-11-21T05:43:12.433Z,2.61
2022-11-21T05:45:39.878Z,2.47
2022-11-21T05:48:08.794Z,2.55
2022-11-21T05:50:36.767Z,2.48
2022-11-21T05:53:05.224Z,2.62
2022-11-21T05:55:34.511Z,2.50
2022-11-21T05:58:01.988Z,2.54
2022-11-21T06:00:29.890Z,2.60
2022-11-21T06:03:15.201Z,2.68
2022-11-21T06:05:44.031Z,2.67
2022-11-21T06:08:11.478Z,2.59
2022-11-21T06:10:38.924Z,2.55
2022-11-21T06:13:21.798Z,2.54
2022-11-21T06:15:50.957Z,2.56
2022-11-21T06:18:18.414Z,2.58
2022-11-21T06:20:47.458Z,2.58
2022-11-21T06:23:15.342Z,2.50
2022-11-21T06:25:43.394Z,2.28
2022-11-21T06:28:11.007Z,2.43
2022-11-21T06:30:38.894Z,2.06
2022-11-21T06:33:07.254Z,2.30
2022-11-21T06:35:39.366Z,2.43
2022-11-21T06:38:08.752Z,2.43
2022-11-21T06:40:36.218Z,2.42
2022-11-21T06:43:03.646Z,2.30
2022-11-21T06:45:31.100Z,2.36
2022-11-21T06:47:58.513Z,2.20
2022-11-21T06:50:25.963Z,2.14
2022-11-21T06:52:53.406Z,2.18
2022-11-21T06:55:23.345Z,2.04
2022-11-21T06:57:50.806Z,2.24
2022-11-21T07:00:19.243Z,2.15
2022-11-21T07:02:46.686Z,2.15
2022-11-21T07:05:14.263Z,2.19
2022-11-21T07:07:41.763Z,2.31
2022-11-21T07:10:10.198Z,2.04
2022-11-21T07:12:56.647Z,2.22
2022-11-21T07:15:24.115Z,2.05
2022-11-21T07:17:51.568Z,2.05
2022-11-21T07:20:19.243Z,2.21
2022-11-21T07:22:46.692Z,2.14
2022-11-21T07:25:14.167Z,2.23
2022-11-21T07:27:42.956Z,2.00
2022-11-21T07:30:11.600Z,2.03
2022-11-21T07:32:39.083Z,1.99
2022-11-21T07:35:07.615Z,2.08
2022-11-21T07:37:38.898Z,2.06
2022-11-21T07:40:07.864Z,2.12
2022-11-21T07:42:35.392Z,1.83
2022-11-21T07:45:04.967Z,1.75
2022-11-21T07:47:32.436Z,1.83
2022-11-21T07:49:59.895Z,1.92
2022-11-21T07:52:30.046Z,2.02
2022-11-21T07:54:57.614Z,1.91
2022-11-21T07:57:25.181Z,1.74
2022-11-21T07:59:52.678Z,1.91
2022-11-21T08:02:22.679Z,1.94
2022-11-21T08:04:50.129Z,1.88
2022-11-21T08:07:19.118Z,1.87
2022-11-21T08:09:46.788Z,1.88
2022-11-21T08:12:14.636Z,2.01
2022-11-21T08:14:42.194Z,2.04
2022-11-21T08:17:09.729Z,1.92
2022-11-21T08:19:38.506Z,1.88
2022-11-21T08:22:05.964Z,1.77
2022-11-21T08:24:33.409Z,1.80
2022-11-21T08:27:03.502Z,2.04
2022-11-21T08:29:30.934Z,2.01
2022-11-21T08:31:58.390Z,2.07
2022-11-21T08:34:25.839Z,2.18
2022-11-21T08:36:54.642Z,1.92
2022-11-21T08:39:22.116Z,1.94
2022-11-21T08:42:04.590Z,1.88
2022-11-21T08:44:32.414Z,1.94
2022-11-21T08:47:00.118Z,1.80
2022-11-21T08:49:27.970Z,1.61
2022-11-21T08:51:56.771Z,1.64
2022-11-21T08:54:25.700Z,1.77
2022-11-21T08:56:54.286Z,1.78
2022-11-21T08:59:21.758Z,1.95
2022-11-21T09:01:49.323Z,2.08
2022-11-21T09:04:16.874Z,1.75
2022-11-21T09:06:44.327Z,1.80
2022-11-21T09:09:13.381Z,1.75
2022-11-21T09:11:41.195Z,1.72
2022-11-21T09:14:26.894Z,2.01
2022-11-21T09:17:12.080Z,1.97
2022-11-21T09:19:39.578Z,1.69
2022-11-21T09:22:07.031Z,1.67
2022-11-21T09:24:35.813Z,1.80
2022-11-21T09:27:03.243Z,1.82
2022-11-21T09:29:30.701Z,1.91
2022-11-21T09:31:58.151Z,1.90
2022-11-21T09:34:25.982Z,2.01
2022-11-21T09:36:53.630Z,1.72
2022-11-21T09:39:21.937Z,2.00
2022-11-21T09:42:00.038Z,2.00
2022-11-21T09:44:45.582Z,1.98
2022-11-21T09:47:21.631Z,1.98
2022-11-21T09:49:52.412Z,2.20
2022-11-21T09:52:22.687Z,2.20
2022-11-21T09:54:51.987Z,2.20
2022-11-21T09:57:24.142Z,2.30
2022-11-21T09:59:52.396Z,2.24
2022-11-21T10:02:22.123Z,2.18
2022-11-21T10:04:50.148Z,2.13
2022-11-21T10:07:22.649Z,2.13
2022-11-21T10:10:19.088Z,2.10
2022-11-21T10:12:57.592Z,2.23
2022-11-21T10:15:32.963Z,2.10
2022-11-21T10:18:18.676Z,2.27
2022-11-21T10:20:55.852Z,2.26
2022-11-21T10:23:54.330Z,2.32
2022-11-21T10:26:23.810Z,2.24
2022-11-21T10:28:57.928Z,2.20
2022-11-21T10:31:26.004Z,2.32
2022-11-21T10:33:54.247Z,2.20
2022-11-21T10:36:27.862Z,2.21
2022-11-21T10:39:00.042Z,2.31
2022-11-21T10:41:38.584Z,2.36
2022-11-21T10:44:31.705Z,2.48
2022-11-21T10:46:59.760Z,2.39
2022-11-21T10:49:29.014Z,2.38
2022-11-21T10:52:01.971Z,2.42
2022-11-21T10:54:36.373Z,2.37
2022-11-21T10:57:08.775Z,2.44
2022-11-21T10:59:37.670Z,2.43
2022-11-21T11:02:23.898Z,2.42
2022-11-21T11:05:29.374Z,2.55
2022-11-21T11:08:03.221Z,2.56
2022-11-21T11:10:31.561Z,2.58
2022-11-21T11:13:45.121Z,2.63
2022-11-21T11:16:06.225Z,2.78
2022-11-21T11:18:35.098Z,2.82
2022-11-21T11:21:18.046Z,2.70
2022-11-21T11:23:47.796Z,2.71
2022-11-21T11:26:27.487Z,2.65
2022-11-21T11:28:55.971Z,3.00
2022-11-21T11:31:23.482Z,3.04
2022-11-21T11:33:53.022Z,3.06
2022-11-21T11:36:30.826Z,3.08
2022-11-21T11:39:00.537Z,2.99
2022-11-21T11:41:58.204Z,2.98
2022-11-21T11:44:47.108Z,3.12
2022-11-21T11:47:32.952Z,3.00
2022-11-21T11:50:11.992Z,3.08
2022-11-21T11:52:53.751Z,3.09
2022-11-21T11:55:27.326Z,3.13
2022-11-21T11:57:56.370Z,3.09
2022-11-21T12:00:28.826Z,3.11
2022-11-21T12:03:01.275Z,3.13
2022-11-21T12:05:29.843Z,3.23
2022-11-21T12:08:40.757Z,3.22
2022-11-21T12:11:14.903Z,3.22
2022-11-21T12:13:43.055Z,3.16
2022-11-21T12:16:14.391Z,3.26
2022-11-21T12:18:49.629Z,3.20
2022-11-21T12:21:18.517Z,3.20
2022-11-21T12:23:48.412Z,3.21
2022-11-21T12:26:40.343Z,3.30
2022-11-21T12:29:17.035Z,3.36
2022-11-21T12:31:56.688Z,3.37
2022-11-21T12:34:34.044Z,3.37
2022-11-21T12:37:07.151Z,3.25
2022-11-21T12:39:57.222Z,3.30
2022-11-21T12:42:47.193Z,3.34
2022-11-21T12:45:31.514Z,3.36
2022-11-21T12:48:39.534Z,3.34
2022-11-21T12:52:12.786Z,3.41
2022-11-21T12:54:54.119Z,3.43
2022-11-21T12:57:22.408Z,3.51
2022-11-21T12:59:58.602Z,3.48
2022-11-21T13:02:31.358Z,3.44
2022-11-21T13:04:59.478Z,3.47
2022-11-21T13:07:29.618Z,3.43
2022-11-21T13:09:58.563Z,3.34
2022-11-21T13:12:33.671Z,3.33
2022-11-21T13:15:11.591Z,3.36
2022-11-21T13:17:44.646Z,3.45
2022-11-21T13:20:20.584Z,3.50
2022-11-21T13:22:52.916Z,3.53
2022-11-21T13:25:48.070Z,3.47
2022-11-21T13:28:30.631Z,3.45
2022-11-21T13:31:02.752Z,3.35
2022-11-21T13:33:48.241Z,3.36
2022-11-21T13:36:41.772Z,3.43
2022-11-21T13:39:28.832Z,3.25
2022-11-21T13:42:24.440Z,3.22
2022-11-21T13:44:52.100Z,3.25
2022-11-21T13:47:47.920Z,3.32
2022-11-21T13:50:24.783Z,3.30
2022-11-21T13:53:01.275Z,3.36
2022-11-21T13:55:50.130Z,3.46
2022-11-21T13:58:28.061Z,3.44
2022-11-21T14:01:07.145Z,3.46
2022-11-21T14:03:52.506Z,3.43
2022-11-21T14:06:34.012Z,3.28
2022-11-21T14:09:23.419Z,3.30
2022-11-21T14:11:52.673Z,3.36
2022-11-21T14:14:29.895Z,3.38
2022-11-21T14:17:08.376Z,3.36
2022-11-21T14:19:37.353Z,3.19
2022-11-21T14:22:04.801Z,3.21
2022-11-21T14:24:32.850Z,3.26
2022-11-21T14:27:00.599Z,3.11
2022-11-21T14:29:29.749Z,3.05
2022-11-21T14:31:57.540Z,3.14
2022-11-21T14:34:26.748Z,3.11
2022-11-21T14:36:58.935Z,3.09
2022-11-21T14:39:44.870Z,3.10
2022-11-21T14:42:14.511Z,3.05
2022-11-21T14:44:42.098Z,2.95
2022-11-21T14:47:19.771Z,2.89
2022-11-21T14:49:53.786Z,2.91
2022-11-21T14:52:26.138Z,3.04
2022-11-21T14:57:44.415Z,2.85
2022-11-21T15:00:36.360Z,2.76
2022-11-21T15:03:03.646Z,2.76
2022-11-21T15:06:00.205Z,2.80
2022-11-21T15:08:53.797Z,2.91
2022-11-21T15:11:11.902Z,2.99
2022-11-21T15:14:06.555Z,2.97
2022-11-21T15:16:27.411Z,3.22
2022-11-21T15:18:54.966Z,3.32
2022-11-21T15:21:22.411Z,3.03
2022-11-21T15:23:51.488Z,2.87
2022-11-21T15:26:29.138Z,2.88
2022-11-21T15:28:57.403Z,2.65
2022-11-21T15:31:25.066Z,2.62
2022-11-21T15:34:19.678Z,2.57
2022-11-21T15:36:44.923Z,2.36
2022-11-21T15:39:18.442Z,2.34
2022-11-21T15:41:46.149Z,2.36
2022-11-21T15:44:23.831Z,2.16
2022-11-21T15:46:54.088Z,2.17
2022-11-21T15:49:36.906Z,2.14
2022-11-21T15:52:12.666Z,2.20
2022-11-21T15:54:41.471Z,2.34
2022-11-21T15:57:09.464Z,2.24
2022-11-21T15:59:36.891Z,2.16
2022-11-21T16:02:04.391Z,2.25
2022-11-21T16:04:32.854Z,2.18
2022-11-21T16:07:00.429Z,2.33
2022-11-21T16:09:29.565Z,2.16
2022-11-21T16:11:58.591Z,2.35
2022-11-21T16:14:26.038Z,2.12
2022-11-21T16:16:53.458Z,2.04
2022-11-21T16:19:20.903Z,1.74
2022-11-21T16:21:48.327Z,1.82
2022-11-21T16:24:15.787Z,1.84
2022-11-21T16:26:43.242Z,1.72
2022-11-21T16:29:12.203Z,1.60
2022-11-21T16:31:39.709Z,1.71
2022-11-21T16:34:07.176Z,1.51
2022-11-21T16:36:34.664Z,1.60
2022-11-21T16:39:08.943Z,1.55
2022-11-21T16:41:40.867Z,1.53
2022-11-21T16:44:14.211Z,1.50
2022-11-21T16:46:43.069Z,1.54
2022-11-21T16:49:10.834Z,1.22
2022-11-21T16:51:38.777Z,1.23
2022-11-21T16:54:09.239Z,1.14
2022-11-21T16:56:37.358Z,1.07
2022-11-21T16:59:04.859Z,1.29
2022-11-21T17:01:33.733Z,1.13
2022-11-21T17:04:01.252Z,1.06
2022-11-21T17:06:31.132Z,0.97
2022-11-21T17:09:00.116Z,0.82
2022-11-21T17:11:30.474Z,0.82
2022-11-21T17:14:00.626Z,0.91
2022-11-21T17:16:28.404Z,0.88
2022-11-21T17:18:58.539Z,0.94
2022-11-21T17:21:26.834Z,1.14
2022-11-21T17:23:54.692Z,1.20
2022-11-21T17:26:23.540Z,1.18
2022-11-21T17:28:54.798Z,1.08
2022-11-21T17:31:22.633Z,1.13
2022-11-21T17:33:51.647Z,1.18
2022-11-21T17:36:22.537Z,1.04
2022-11-21T17:38:50.587Z,1.08
2022-11-21T17:41:19.415Z,1.02
2022-11-21T17:43:48.124Z,1.12
2022-11-21T17:46:17.732Z,1.13
2022-11-21T17:48:51.471Z,1.27
2022-11-21T17:51:25.285Z,1.25
2022-11-21T17:53:53.362Z,1.16
2022-11-21T17:56:22.159Z,0.90
2022-11-21T17:58:49.819Z,1.12
2022-11-21T18:01:20.136Z,1.13
2022-11-21T18:03:48.717Z,1.13
2022-11-21T18:06:17.719Z,1.27
2022-11-21T18:08:48.476Z,1.36
2022-11-21T18:11:18.986Z,1.38
2022-11-21T18:13:46.577Z,1.42
2022-11-21T18:16:16.634Z,1.48
2022-11-21T18:18:44.109Z,1.67
2022-11-21T18:21:13.043Z,1.50
2022-11-21T18:23:40.947Z,1.73
2022-11-21T18:26:13.385Z,1.77
2022-11-21T18:28:41.594Z,1.80
2022-11-21T18:31:10.522Z,1.85
2022-11-21T18:33:38.710Z,1.88
2022-11-21T18:36:08.007Z,1.86
2022-11-21T18:38:58.348Z,1.86
2022-11-21T18:41:27.755Z,1.88
2022-11-21T18:43:56.297Z,1.97
2022-11-21T18:46:24.919Z,1.85
2022-11-21T18:49:04.563Z,1.69
2022-11-21T18:51:33.542Z,1.76
2022-11-21T18:54:03.897Z,1.82
2022-11-21T18:56:32.722Z,1.80
2022-11-21T18:59:00.270Z,1.51
2022-11-21T19:01:29.420Z,1.62
2022-11-21T19:03:57.391Z,1.61
2022-11-21T19:06:26.453Z,1.52
2022-11-21T19:08:55.359Z,1.45
2022-11-21T19:11:24.800Z,1.33
2022-11-21T19:13:54.712Z,1.27
2022-11-21T19:16:24.253Z,1.40
2022-11-21T19:19:18.561Z,1.38
2022-11-21T19:21:40.310Z,1.50
2022-11-21T19:24:08.176Z,1.61
2022-11-21T19:26:35.734Z,1.53
2022-11-21T19:29:04.540Z,1.38
2022-11-21T19:31:32.562Z,1.46
2022-11-21T19:34:00.035Z,1.30
2022-11-21T19:36:27.482Z,1.31
2022-11-21T19:38:54.918Z,1.31
2022-11-21T19:41:25.708Z,1.20
2022-11-21T19:43:54.293Z,1.03
2022-11-21T19:46:24.254Z,1.25
2022-11-21T19:48:53.240Z,1.17
2022-11-21T19:51:21.666Z,1.18
2022-11-21T19:53:49.824Z,1.09
2022-11-21T19:56:18.545Z,1.12
2022-11-21T19:58:46.300Z,1.09
2022-11-21T20:01:15.284Z,1.07
2022-11-21T20:03:45.382Z,1.07
2022-11-21T20:06:16.768Z,0.92
2022-11-21T20:08:44.687Z,0.83
2022-11-21T20:11:15.359Z,0.89
2022-11-21T20:13:44.598Z,0.74
2022-11-21T20:16:18.843Z,1.03
2022-11-21T20:18:47.847Z,0.88
2022-11-21T20:21:15.674Z,0.77
2022-11-21T20:23:43.452Z,0.75
2022-11-21T20:26:11.850Z,0.88
2022-11-21T20:28:39.696Z,0.93
2022-11-21T20:31:08.036Z,0.82
2022-11-21T20:33:36.560Z,0.92
2022-11-21T20:36:07.188Z,0.72
2022-11-21T20:38:34.709Z,0.78
2022-11-21T20:41:02.380Z,0.78
2022-11-21T20:44:02.781Z,0.69
2022-11-21T20:46:20.631Z,0.57
2022-11-21T20:48:48.762Z,0.73
2022-11-21T20:52:55.647Z,0.67
2022-11-21T20:54:05.931Z,0.73
2022-11-21T20:56:35.014Z,0.62
2022-11-21T20:59:02.811Z,0.65
2022-11-21T21:01:31.104Z,0.73
2022-11-21T21:03:58.602Z,0.57
2022-11-21T21:06:27.411Z,0.68
2022-11-21T21:08:54.897Z,0.68
2022-11-21T21:11:50.918Z,0.70
2022-11-21T21:14:11.299Z,0.77
2022-11-21T21:16:38.822Z,0.86
2022-11-21T21:19:06.251Z,0.78
2022-11-21T21:21:35.102Z,0.78
2022-11-21T21:24:04.486Z,0.68
2022-11-21T21:26:40.237Z,0.67
2022-11-21T21:29:09.198Z,0.61
2022-11-21T21:31:36.678Z,0.44
2022-11-21T21:34:04.144Z,0.42
2022-11-21T21:36:32.350Z,0.39
2022-11-21T21:39:01.451Z,0.42
2022-11-21T21:41:30.603Z,0.44
2022-11-21T21:43:58.597Z,0.48
2022-11-21T21:46:28.038Z,0.44
2022-11-21T21:48:57.048Z,0.52
2022-11-21T21:51:25.999Z,0.41
2022-11-21T21:53:54.517Z,0.44
2022-11-21T21:56:24.646Z,0.29
2022-11-21T21:58:52.604Z,0.39
2022-11-21T22:01:21.557Z,0.51
2022-11-21T22:03:49.553Z,0.53
2022-11-21T22:06:18.433Z,0.52
2022-11-21T22:08:47.284Z,0.46
2022-11-21T22:11:16.677Z,0.49
2022-11-21T22:13:47.745Z,0.45
2022-11-21T22:16:15.540Z,0.40
2022-11-21T22:18:43.175Z,0.43
2022-11-21T22:21:14.276Z,0.46
2022-11-21T22:23:56.404Z,0.53
2022-11-21T22:26:29.617Z,0.58
2022-11-21T22:29:01.387Z,0.53
2022-11-21T22:31:31.214Z,0.55
2022-11-21T22:34:01.782Z,0.45
2022-11-21T22:36:29.261Z,0.43
2022-11-21T22:38:57.267Z,0.52
2022-11-21T22:41:26.442Z,0.45
2022-11-21T22:43:55.609Z,0.43
2022-11-21T22:46:25.651Z,0.58
2022-11-21T22:48:53.121Z,0.46
2022-11-21T22:51:22.040Z,0.57
2022-11-21T22:53:50.303Z,0.49
2022-11-21T22:56:18.955Z,0.65
2022-11-21T22:58:46.986Z,0.62
2022-11-21T23:01:15.892Z,0.73
2022-11-21T23:03:45.418Z,0.66
2022-11-21T23:06:14.172Z,0.77
2022-11-21T23:08:42.499Z,0.75
2022-11-21T23:11:11.882Z,0.89
2022-11-21T23:13:40.736Z,1.02
2022-11-21T23:16:08.636Z,0.81
2022-11-21T23:18:37.244Z,0.79
2022-11-21T23:21:06.470Z,0.83
2022-11-21T23:23:34.242Z,0.80
2022-11-21T23:26:01.938Z,0.79
2022-11-21T23:28:29.472Z,0.90
2022-11-21T23:30:56.963Z,0.82
2022-11-21T23:33:24.623Z,1.01
2022-11-21T23:35:52.062Z,0.88
2022-11-21T23:38:21.736Z,0.88
2022-11-21T23:40:49.775Z,0.98
2022-11-21T23:43:18.178Z,0.93
2022-11-21T23:45:46.190Z,1.02
2022-11-21T23:48:13.656Z,0.73
2022-11-21T23:50:41.112Z,0.89
2022-11-21T23:53:09.454Z,1.06
2022-11-21T23:55:38.233Z,0.96
2022-11-21T23:58:05.726Z,1.02
